Time;durP1;ratioP1;P1;durP2;ratioP2;P2;SDS_P1;SDS_P2;PMS_P1;PMS_P2;Temp;Humidity;BMP_temperature;BMP_pressure;BME280_temperature;BME280_humidity;BME280_pressure;Samples;Min_cycle;Max_cycle;Signal;HPM_P1;HPM_P2
2023/02/14 00:01:36;;;;;;;19.80;17.37;;;3.90;99.90;;;;;;5022112;28;20196;-92
2023/02/14 00:04:02;;;;;;;20.60;18.23;;;3.90;99.90;;;;;;5035531;28;20177;-90
2023/02/14 00:06:33;;;;;;;25.37;18.57;;;3.90;99.90;;;;;;5035080;28;20197;-90
2023/02/14 00:09:00;;;;;;;19.60;16.33;;;3.90;99.90;;;;;;5035484;28;20637;-89
2023/02/14 00:11:26;;;;;;;21.07;18.20;;;3.80;99.90;;;;;;5036037;28;20176;-90
2023/02/14 00:16:36;;;;;;;19.93;17.80;;;3.90;99.90;;;;;;5043182;28;20224;-91
2023/02/14 00:19:02;;;;;;;22.37;18.50;;;3.80;99.90;;;;;;5017323;28;20636;-90
2023/02/14 00:21:27;;;;;;;19.07;16.37;;;3.80;99.90;;;;;;5016837;28;20182;-90
2023/02/14 00:23:53;;;;;;;23.57;17.73;;;3.70;99.90;;;;;;5017619;28;20173;-91
2023/02/14 00:26:19;;;;;;;19.50;17.40;;;3.80;99.90;;;;;;5016641;28;20452;-91
2023/02/14 00:28:45;;;;;;;23.40;18.10;;;3.90;99.90;;;;;;5019648;28;20667;-92
2023/02/14 00:31:10;;;;;;;22.93;16.53;;;3.60;99.90;;;;;;5036050;28;20192;-90
2023/02/14 00:33:36;;;;;;;36.47;18.60;;;3.60;99.90;;;;;;5016003;28;20181;-91
2023/02/14 00:36:03;;;;;;;23.20;18.73;;;3.30;99.90;;;;;;5034616;28;20215;-91
2023/02/14 00:38:29;;;;;;;36.00;18.53;;;2.90;99.90;;;;;;5019559;28;20189;-91
2023/02/14 00:40:55;;;;;;;22.60;17.43;;;2.90;99.90;;;;;;5014451;28;20201;-92
2023/02/14 00:43:20;;;;;;;18.60;15.77;;;2.90;99.90;;;;;;5015218;28;20181;-90
2023/02/14 00:45:46;;;;;;;24.40;18.63;;;3.20;99.90;;;;;;5015573;28;20212;-92
2023/02/14 00:48:11;;;;;;;19.50;16.70;;;3.40;99.90;;;;;;5015327;28;20206;-91
2023/02/14 00:50:37;;;;;;;19.77;16.57;;;3.60;99.90;;;;;;5021488;28;20217;-91
2023/02/14 00:53:03;;;;;;;19.70;16.30;;;3.70;99.90;;;;;;5020464;28;20227;-91
2023/02/14 00:55:28;;;;;;;20.30;15.87;;;3.80;99.90;;;;;;5017045;28;20221;-90
2023/02/14 00:57:54;;;;;;;22.27;17.80;;;3.90;99.90;;;;;;5017483;28;20178;-91
2023/02/14 01:00:21;;;;;;;17.77;15.87;;;3.90;99.90;;;;;;5015959;28;20741;-91
2023/02/14 01:02:46;;;;;;;23.53;17.53;;;3.60;99.90;;;;;;5028890;28;20268;-91
2023/02/14 01:05:12;;;;;;;21.60;15.93;;;3.70;99.90;;;;;;5034654;28;20634;-92
2023/02/14 01:07:37;;;;;;;19.53;16.57;;;3.80;99.90;;;;;;5027334;28;20189;-90
2023/02/14 01:10:04;;;;;;;20.03;16.53;;;3.90;99.90;;;;;;5022537;28;20239;-91
2023/02/14 01:12:29;;;;;;;22.43;19.10;;;3.90;99.90;;;;;;5033117;28;20356;-92
2023/02/14 01:14:55;;;;;;;20.40;16.73;;;3.90;99.90;;;;;;5034728;28;20213;-91
2023/02/14 01:17:22;;;;;;;18.63;16.63;;;4.00;99.90;;;;;;5035744;28;20224;-90
2023/02/14 01:19:51;;;;;;;20.93;17.60;;;4.00;99.90;;;;;;5036748;28;20181;-91
2023/02/14 01:22:16;;;;;;;19.43;16.83;;;3.80;99.90;;;;;;5039659;28;20179;-92
2023/02/14 01:24:42;;;;;;;22.40;16.43;;;3.70;99.90;;;;;;5038528;28;20213;-91
2023/02/14 01:27:08;;;;;;;20.23;17.30;;;3.70;99.90;;;;;;5039633;28;20185;-92
2023/02/14 01:29:33;;;;;;;23.73;18.73;;;3.60;99.90;;;;;;5019914;28;20273;-91
2023/02/14 01:31:59;;;;;;;21.23;17.13;;;3.60;99.90;;;;;;5019787;28;20204;-90
2023/02/14 01:34:25;;;;;;;22.37;18.47;;;3.50;99.90;;;;;;5022214;28;20574;-92
2023/02/14 01:36:50;;;;;;;18.53;15.73;;;3.50;99.90;;;;;;5035040;28;20232;-91
2023/02/14 01:39:17;;;;;;;18.07;15.67;;;3.50;99.90;;;;;;5018517;28;20174;-92
2023/02/14 01:41:47;;;;;;;18.63;15.83;;;3.60;99.90;;;;;;5018197;28;20188;-91
2023/02/14 01:44:12;;;;;;;25.37;17.20;;;3.60;99.90;;;;;;5018039;28;20517;-91
2023/02/14 01:46:39;;;;;;;18.70;16.70;;;3.70;99.90;;;;;;5016789;28;20284;-91
2023/02/14 01:49:17;;;;;;;23.20;15.43;;;3.70;99.90;;;;;;5024571;28;20188;-92
2023/02/14 01:51:55;;;;;;;19.13;16.93;;;3.80;99.90;;;;;;5038554;28;20169;-90
2023/02/14 01:54:24;;;;;;;20.53;16.20;;;3.80;99.90;;;;;;5038713;28;20169;-91
2023/02/14 01:56:55;;;;;;;22.80;18.07;;;3.80;99.90;;;;;;5042198;28;20280;-93
2023/02/14 01:59:25;;;;;;;19.80;16.20;;;3.90;99.90;;;;;;5059425;28;20176;-92
2023/02/14 02:01:52;;;;;;;18.77;15.90;;;3.70;99.90;;;;;;5054706;28;20208;-93
2023/02/14 02:04:37;;;;;;;21.27;16.93;;;3.80;99.90;;;;;;5039020;28;20207;-92
2023/02/14 02:07:07;;;;;;;19.83;15.90;;;3.90;99.90;;;;;;5036614;28;20204;-90
2023/02/14 02:09:42;;;;;;;23.00;17.43;;;3.90;99.90;;;;;;5036302;28;20283;-91
2023/02/14 02:12:08;;;;;;;22.17;17.10;;;3.80;99.90;;;;;;5039040;28;20172;-91
2023/02/14 02:14:34;;;;;;;26.30;17.50;;;3.70;99.90;;;;;;5036218;28;20184;-91
2023/02/14 02:17:13;;;;;;;22.00;16.50;;;3.50;99.90;;;;;;5036392;28;20223;-90
2023/02/14 02:19:41;;;;;;;19.63;16.53;;;3.50;99.90;;;;;;5037578;28;20176;-91
2023/02/14 02:23:02;;;;;;;17.00;14.77;;;3.50;99.90;;;;;;5037813;28;20197;-89
2023/02/14 02:25:49;;;;;;;24.33;14.83;;;3.70;99.90;;;;;;5005538;28;20257;-90
2023/02/14 02:28:43;;;;;;;18.47;14.97;;;3.70;99.90;;;;;;5017016;28;20193;-91
2023/02/14 02:31:36;;;;;;;27.17;14.33;;;3.60;99.90;;;;;;5018141;28;20178;-90
2023/02/14 02:34:13;;;;;;;16.80;14.70;;;3.20;99.90;;;;;;5017241;28;20170;-91
2023/02/14 02:36:44;;;;;;;16.47;14.73;;;3.10;99.90;;;;;;5017132;28;20304;-91
2023/02/14 02:39:24;;;;;;;20.43;14.90;;;3.30;99.90;;;;;;5037477;28;20173;-91
2023/02/14 02:42:11;;;;;;;19.47;15.00;;;3.30;99.90;;;;;;5035612;28;20268;-91
2023/02/14 02:44:45;;;;;;;16.03;13.50;;;3.40;99.90;;;;;;5038086;28;20165;-91
2023/02/14 02:47:37;;;;;;;16.23;14.27;;;3.30;99.90;;;;;;5039105;28;20169;-90
2023/02/14 02:53:12;;;;;;;19.63;13.03;;;3.30;99.90;;;;;;5032476;28;20220;-91
2023/02/14 02:58:27;;;;;;;15.70;13.03;;;3.20;99.90;;;;;;5036077;28;20227;-92
2023/02/14 03:00:56;;;;;;;16.30;13.07;;;3.40;99.90;;;;;;5052460;22;20296;-85
2023/02/14 03:06:09;;;;;;;17.07;13.40;;;3.30;99.90;;;;;;5040331;28;20248;-84
2023/02/14 03:08:34;;;;;;;13.77;12.33;;;3.20;99.90;;;;;;5039238;28;20192;-85
2023/02/14 03:11:02;;;;;;;20.67;14.83;;;3.30;99.90;;;;;;5041609;28;20715;-86
2023/02/14 03:13:46;;;;;;;18.53;13.00;;;3.00;99.90;;;;;;5042442;28;20193;-85
2023/02/14 03:16:20;;;;;;;15.60;12.53;;;2.80;99.90;;;;;;5046234;28;20212;-84
2023/02/14 03:19:07;;;;;;;15.43;13.07;;;2.60;99.90;;;;;;5030246;28;20543;-83
2023/02/14 03:21:53;;;;;;;15.40;12.90;;;2.60;99.90;;;;;;5026086;28;20196;-83
2023/02/14 03:24:28;;;;;;;17.40;13.10;;;2.50;99.90;;;;;;5027453;28;20181;-84
2023/02/14 03:27:12;;;;;;;16.40;13.20;;;2.50;99.90;;;;;;5021930;28;20173;-84
2023/02/14 03:30:15;;;;;;;15.87;12.60;;;2.50;99.90;;;;;;5017112;28;20315;-84
2023/02/14 03:32:44;;;;;;;13.77;12.27;;;2.50;99.90;;;;;;5016263;28;20864;-85
2023/02/14 03:35:14;;;;;;;15.07;12.07;;;2.60;99.90;;;;;;5015382;28;20603;-85
2023/02/14 03:37:47;;;;;;;14.90;13.13;;;2.60;99.90;;;;;;5006089;28;20278;-84
2023/02/14 03:40:24;;;;;;;13.30;12.00;;;2.50;99.90;;;;;;4995801;28;20186;-83
2023/02/14 03:43:07;;;;;;;12.33;11.03;;;2.40;99.90;;;;;;5014574;28;20182;-84
2023/02/14 03:46:16;;;;;;;14.70;11.97;;;2.50;99.90;;;;;;5015076;28;20205;-85
2023/02/14 03:48:44;;;;;;;16.83;11.97;;;2.50;99.90;;;;;;4961724;28;20200;-85
2023/02/14 03:51:13;;;;;;;12.53;10.97;;;2.60;99.90;;;;;;5004613;28;20206;-84
2023/02/14 03:53:43;;;;;;;17.03;13.07;;;2.60;99.90;;;;;;4994949;28;20179;-85
2023/02/14 03:56:21;;;;;;;15.77;12.90;;;2.50;99.90;;;;;;4995326;28;20198;-84
2023/02/14 03:58:50;;;;;;;24.67;13.27;;;2.50;99.90;;;;;;5011390;28;20189;-85
2023/02/14 04:01:22;;;;;;;13.97;12.20;;;2.60;99.90;;;;;;5014342;28;20205;-85
2023/02/14 04:03:49;;;;;;;16.93;12.57;;;2.60;99.90;;;;;;4997503;28;20201;-84
2023/02/14 04:06:17;;;;;;;12.80;11.57;;;2.80;99.90;;;;;;4996976;28;20186;-84
2023/02/14 04:08:43;;;;;;;15.60;12.10;;;3.00;99.90;;;;;;5011197;28;20194;-86
2023/02/14 04:11:09;;;;;;;13.23;11.83;;;3.00;99.90;;;;;;5017337;28;20209;-83
2023/02/14 04:13:36;;;;;;;14.20;12.70;;;3.00;99.90;;;;;;5016290;28;20264;-85
2023/02/14 04:16:02;;;;;;;15.53;13.00;;;3.10;99.90;;;;;;5021293;28;20215;-85
2023/02/14 04:21:12;;;;;;;18.13;14.07;;;3.20;99.90;;;;;;5016869;28;20212;-85
2023/02/14 04:23:37;;;;;;;15.60;13.10;;;3.10;99.90;;;;;;5015821;28;20198;-84
2023/02/14 04:26:03;;;;;;;14.73;13.13;;;3.00;99.90;;;;;;5016829;28;20814;-85
2023/02/14 04:28:30;;;;;;;14.07;12.57;;;3.00;99.90;;;;;;5015907;28;20173;-85
2023/02/14 04:30:55;;;;;;;15.23;12.33;;;2.90;99.90;;;;;;5015562;28;20208;-85
2023/02/14 04:33:21;;;;;;;14.87;13.33;;;2.90;99.90;;;;;;5014586;28;20185;-86
2023/02/14 04:35:47;;;;;;;17.17;13.50;;;3.00;99.90;;;;;;5013924;28;20251;-83
2023/02/14 04:38:13;;;;;;;17.73;14.17;;;3.00;99.90;;;;;;5000985;28;20190;-85
2023/02/14 04:40:39;;;;;;;15.43;12.87;;;2.90;99.90;;;;;;4995481;28;20208;-85
2023/02/14 04:43:06;;;;;;;13.77;12.37;;;2.90;99.90;;;;;;5000972;28;20266;-84
2023/02/14 04:45:31;;;;;;;16.20;13.83;;;2.90;99.90;;;;;;4996709;28;20193;-84
2023/02/14 04:47:57;;;;;;;16.13;13.97;;;3.00;99.90;;;;;;5014529;28;20567;-84
2023/02/14 04:50:24;;;;;;;19.83;14.53;;;2.90;99.90;;;;;;5010538;28;20213;-85
2023/02/14 04:52:51;;;;;;;15.77;13.53;;;2.80;99.90;;;;;;5006660;28;20170;-85
2023/02/14 04:55:16;;;;;;;15.53;13.80;;;2.60;99.90;;;;;;5009047;28;20198;-81
2023/02/14 04:57:42;;;;;;;19.03;13.57;;;2.50;99.90;;;;;;5024437;28;20185;-85
2023/02/14 05:00:08;;;;;;;16.30;13.90;;;2.50;99.90;;;;;;5043255;28;20216;-84
2023/02/14 05:02:34;;;;;;;16.17;13.80;;;2.40;99.90;;;;;;5035649;28;20189;-86
2023/02/14 05:05:00;;;;;;;15.90;14.03;;;2.20;99.90;;;;;;5021837;28;20189;-84
2023/02/14 05:07:25;;;;;;;15.93;13.97;;;2.00;99.90;;;;;;5019953;28;20189;-84
2023/02/14 05:09:51;;;;;;;18.60;13.83;;;1.90;99.90;;;;;;5020218;28;20209;-85
2023/02/14 05:12:17;;;;;;;20.87;14.53;;;2.10;99.90;;;;;;5019890;28;20189;-85
2023/02/14 05:14:42;;;;;;;15.90;14.27;;;2.20;99.90;;;;;;5020282;28;20185;-85
2023/02/14 05:17:08;;;;;;;15.80;13.63;;;2.10;99.90;;;;;;5020433;28;20213;-84
2023/02/14 05:19:34;;;;;;;18.10;16.17;;;2.20;99.90;;;;;;5020490;28;20201;-84
2023/02/14 05:21:59;;;;;;;19.33;17.30;;;2.30;99.90;;;;;;5020575;28;20270;-85
2023/02/14 05:24:25;;;;;;;19.67;17.73;;;2.40;99.90;;;;;;5019895;28;20174;-84
2023/02/14 05:26:50;;;;;;;17.13;15.33;;;2.40;99.90;;;;;;5018731;28;20225;-84
2023/02/14 05:29:16;;;;;;;17.77;15.97;;;2.40;99.90;;;;;;5019140;28;20189;-86
2023/02/14 05:31:42;;;;;;;16.43;13.47;;;2.40;99.90;;;;;;5019322;28;20189;-85
2023/02/14 05:34:07;;;;;;;16.90;13.97;;;2.30;99.90;;;;;;5018903;28;20192;-85
2023/02/14 05:36:33;;;;;;;19.87;15.50;;;2.30;99.90;;;;;;5017799;28;20516;-83
2023/02/14 05:38:58;;;;;;;15.83;13.47;;;2.10;99.90;;;;;;5019336;28;20177;-84
2023/02/14 05:41:24;;;;;;;17.93;13.63;;;2.10;99.90;;;;;;5018827;28;20252;-84
2023/02/14 05:43:49;;;;;;;15.93;12.63;;;2.10;99.90;;;;;;5017321;28;20269;-85
2023/02/14 05:46:15;;;;;;;16.00;13.70;;;2.00;99.90;;;;;;5016952;28;20212;-85
2023/02/14 05:48:41;;;;;;;15.87;13.47;;;1.90;99.90;;;;;;5018860;28;20209;-85
2023/02/14 05:51:09;;;;;;;17.23;13.40;;;1.80;99.90;;;;;;4996707;28;20454;-85
2023/02/14 05:53:35;;;;;;;19.37;12.67;;;1.70;99.90;;;;;;4996424;28;20282;-83
2023/02/14 05:56:01;;;;;;;23.70;18.73;;;1.60;99.90;;;;;;5001124;28;20699;-83
2023/02/14 05:58:26;;;;;;;40.60;30.70;;;1.60;99.90;;;;;;5022698;28;20671;-84
2023/02/14 06:00:52;;;;;;;20.47;16.50;;;1.60;99.90;;;;;;5018726;28;20291;-84
2023/02/14 06:03:18;;;;;;;16.63;13.93;;;1.60;99.90;;;;;;5019196;28;20193;-84
2023/02/14 06:05:43;;;;;;;20.00;13.50;;;1.70;99.90;;;;;;5018606;28;20192;-85
2023/02/14 06:08:09;;;;;;;22.93;18.47;;;1.50;99.90;;;;;;5019063;28;20193;-84
2023/02/14 06:10:34;;;;;;;20.87;16.73;;;1.30;99.90;;;;;;5018797;28;20217;-85
2023/02/14 06:13:00;;;;;;;22.30;16.87;;;1.40;99.90;;;;;;5018358;28;20181;-83
2023/02/14 06:15:26;;;;;;;20.87;17.03;;;1.40;99.90;;;;;;5030474;28;20205;-85
2023/02/14 06:17:56;;;;;;;18.17;15.30;;;1.40;99.90;;;;;;5038390;28;20185;-84
2023/02/14 06:20:23;;;;;;;20.33;14.60;;;1.50;99.90;;;;;;5038898;28;20284;-85
2023/02/14 06:22:49;;;;;;;17.07;15.13;;;1.50;99.90;;;;;;5038431;28;20610;-84
2023/02/14 06:25:15;;;;;;;20.37;16.23;;;1.60;99.90;;;;;;5036402;28;20261;-83
2023/02/14 06:27:41;;;;;;;19.47;15.33;;;1.30;99.90;;;;;;5037700;28;20311;-85
2023/02/14 06:30:07;;;;;;;20.87;17.20;;;1.20;99.90;;;;;;5037054;28;20212;-85
2023/02/14 06:32:33;;;;;;;24.43;19.23;;;1.30;99.90;;;;;;5035276;28;20191;-83
2023/02/14 06:34:58;;;;;;;17.17;14.83;;;1.30;99.90;;;;;;5035106;28;20276;-85
2023/02/14 06:37:24;;;;;;;20.00;14.53;;;1.40;99.90;;;;;;5026698;28;20253;-83
2023/02/14 06:39:49;;;;;;;17.57;13.60;;;1.40;99.90;;;;;;5029430;28;20212;-85
2023/02/14 06:42:15;;;;;;;20.20;17.03;;;1.50;99.90;;;;;;5035407;28;20181;-84
2023/02/14 06:44:41;;;;;;;21.70;17.07;;;1.60;99.90;;;;;;5034806;28;20517;-84
2023/02/14 06:47:07;;;;;;;17.90;15.87;;;1.40;99.90;;;;;;5035517;28;20264;-86
2023/02/14 06:49:33;;;;;;;27.03;14.87;;;1.40;99.90;;;;;;5036354;28;20211;-84
2023/02/14 06:51:58;;;;;;;20.87;13.10;;;1.20;99.90;;;;;;5025576;28;20210;-85
2023/02/14 06:54:24;;;;;;;17.93;13.70;;;1.10;99.90;;;;;;5002242;28;20182;-84
2023/02/14 06:56:50;;;;;;;22.63;16.40;;;1.30;99.90;;;;;;5015044;28;20236;-84
2023/02/14 06:59:16;;;;;;;19.50;15.63;;;1.40;99.90;;;;;;5016204;28;20194;-83
2023/02/14 07:01:41;;;;;;;19.67;15.57;;;1.50;99.90;;;;;;5017288;28;20309;-86
2023/02/14 07:04:07;;;;;;;19.20;14.60;;;1.60;99.90;;;;;;5018615;28;20647;-85
2023/02/14 07:06:33;;;;;;;23.13;16.63;;;1.60;99.90;;;;;;5019596;28;20210;-85
2023/02/14 07:08:59;;;;;;;19.20;14.93;;;1.70;99.90;;;;;;5018834;28;20249;-83
2023/02/14 07:11:25;;;;;;;18.60;15.10;;;1.60;99.90;;;;;;5017518;28;20228;-83
2023/02/14 07:13:50;;;;;;;23.20;16.93;;;1.70;99.90;;;;;;5019154;28;20229;-85
2023/02/14 07:16:16;;;;;;;21.20;16.67;;;1.90;99.90;;;;;;5020478;28;20213;-86
2023/02/14 07:18:42;;;;;;;25.87;17.47;;;1.70;99.90;;;;;;5020081;28;20201;-86
2023/02/14 07:21:07;;;;;;;23.97;16.80;;;1.80;99.90;;;;;;5020487;28;20244;-85
2023/02/14 07:23:33;;;;;;;26.93;17.67;;;2.00;99.90;;;;;;5020852;28;20185;-87
2023/02/14 07:25:58;;;;;;;22.47;17.70;;;2.00;99.90;;;;;;5021676;28;20189;-88
2023/02/14 07:28:24;;;;;;;21.93;17.43;;;1.70;99.90;;;;;;5022086;28;20577;-85
2023/02/14 07:30:49;;;;;;;24.70;16.77;;;1.60;99.90;;;;;;5030309;28;20205;-86
2023/02/14 07:33:15;;;;;;;24.03;17.70;;;1.70;99.90;;;;;;5038358;28;20214;-84
2023/02/14 07:35:41;;;;;;;23.20;17.87;;;1.80;99.90;;;;;;5037097;28;20209;-83
2023/02/14 07:38:06;;;;;;;20.60;17.87;;;1.90;99.90;;;;;;5024568;28;20253;-85
2023/02/14 07:40:32;;;;;;;22.53;18.80;;;2.00;99.90;;;;;;5017758;28;20255;-85
2023/02/14 07:42:59;;;;;;;23.90;18.77;;;2.20;99.90;;;;;;5019447;28;20615;-85
2023/02/14 07:45:26;;;;;;;20.70;17.47;;;2.00;99.90;;;;;;5019016;28;20631;-85
2023/02/14 07:47:53;;;;;;;22.90;18.20;;;2.20;99.90;;;;;;5018713;28;20185;-86
2023/02/14 07:50:21;;;;;;;22.73;17.93;;;2.30;99.90;;;;;;5018391;28;20202;-85
2023/02/14 07:52:47;;;;;;;23.40;19.50;;;2.50;99.90;;;;;;5000492;28;20187;-85
2023/02/14 07:55:13;;;;;;;24.40;18.53;;;2.20;98.40;;;;;;5018049;28;20244;-85
2023/02/14 07:57:38;;;;;;;21.23;18.00;;;2.00;99.90;;;;;;5018854;28;20209;-85
2023/02/14 08:00:05;;;;;;;28.00;19.17;;;1.90;99.90;;;;;;5018321;28;20230;-85
2023/02/14 08:02:31;;;;;;;23.30;18.47;;;1.80;99.90;;;;;;5019302;28;20181;-86
2023/02/14 08:04:57;;;;;;;23.80;18.27;;;1.80;99.90;;;;;;5019407;28;20237;-84
2023/02/14 08:07:22;;;;;;;22.87;18.37;;;1.90;99.90;;;;;;5019119;28;20181;-85
2023/02/14 08:09:48;;;;;;;23.37;18.53;;;1.90;99.90;;;;;;5018738;28;20232;-84
2023/02/14 08:16:03;;;;;;;24.90;18.53;;;2.00;99.90;;;;;;5018132;28;20184;-85
2023/02/14 08:17:43;;;;;;;23.80;18.17;;;2.10;99.90;;;;;;5032203;28;20204;-85
2023/02/14 08:20:09;;;;;;;24.67;20.10;;;2.20;99.90;;;;;;5016773;28;20224;-85
2023/02/14 08:22:35;;;;;;;26.30;19.50;;;2.10;99.90;;;;;;5017907;28;20493;-86
2023/02/14 08:25:00;;;;;;;22.90;18.53;;;1.90;99.90;;;;;;5018334;28;20201;-85
2023/02/14 08:27:26;;;;;;;24.17;19.27;;;1.80;99.90;;;;;;5018425;28;20250;-85
2023/02/14 08:29:52;;;;;;;21.80;17.07;;;1.90;99.90;;;;;;5015849;28;20205;-85
2023/02/14 08:32:19;;;;;;;19.77;16.80;;;1.90;99.90;;;;;;5015641;28;20197;-86
2023/02/14 08:34:45;;;;;;;22.03;18.20;;;1.90;99.90;;;;;;5016099;28;20184;-85
2023/02/14 08:37:11;;;;;;;22.67;18.30;;;1.70;99.90;;;;;;5016710;28;20189;-84
2023/02/14 08:39:38;;;;;;;23.50;18.47;;;1.70;99.90;;;;;;5017236;28;20198;-85
2023/02/14 08:42:04;;;;;;;21.57;16.70;;;1.60;99.90;;;;;;5018716;28;20202;-85
2023/02/14 08:44:30;;;;;;;24.27;17.37;;;1.80;99.90;;;;;;5017205;28;20228;-85
2023/02/14 08:46:56;;;;;;;22.50;18.37;;;2.00;99.90;;;;;;5016214;28;20660;-84
2023/02/14 08:49:21;;;;;;;22.07;17.83;;;1.80;99.90;;;;;;4998930;28;20231;-84
2023/02/14 08:51:47;;;;;;;26.23;19.67;;;1.80;99.90;;;;;;5016777;28;20232;-84
2023/02/14 08:54:12;;;;;;;22.27;18.93;;;1.70;99.90;;;;;;5017480;28;20177;-85
2023/02/14 08:56:39;;;;;;;23.97;20.10;;;1.50;99.90;;;;;;5022725;28;20312;-86
2023/02/14 08:59:05;;;;;;;26.97;20.70;;;1.20;99.90;;;;;;5029271;28;20328;-85
2023/02/14 09:04:10;;;;;;;21.73;17.77;;;1.30;99.90;;;;;;5009671;28;20236;-87
2023/02/14 09:06:38;;;;;;;23.57;19.43;;;1.60;99.90;;;;;;5018234;28;20208;-86
2023/02/14 09:09:05;;;;;;;25.47;19.97;;;1.60;99.90;;;;;;5020258;28;20337;-89
2023/02/14 09:11:30;;;;;;;26.03;18.87;;;1.70;99.90;;;;;;5022453;28;20284;-85
2023/02/14 09:13:56;;;;;;;21.57;17.57;;;1.80;99.90;;;;;;5021856;28;20248;-88
2023/02/14 09:16:23;;;;;;;20.37;17.73;;;2.10;99.90;;;;;;5023221;28;20228;-87
2023/02/14 09:18:50;;;;;;;24.53;19.03;;;2.20;99.90;;;;;;5028333;28;20185;-87
2023/02/14 09:21:18;;;;;;;20.90;18.60;;;2.30;99.90;;;;;;5026920;28;20585;-89
2023/02/14 09:23:44;;;;;;;23.13;17.37;;;2.30;98.50;;;;;;5025833;28;20201;-87
2023/02/14 09:26:12;;;;;;;21.87;17.57;;;2.40;98.90;;;;;;5027125;28;20941;-88
2023/02/14 09:28:38;;;;;;;21.90;17.50;;;2.40;98.60;;;;;;5025264;28;20189;-89
2023/02/14 09:31:12;;;;;;;21.67;17.83;;;2.30;97.50;;;;;;5025390;28;20633;-86
2023/02/14 09:33:38;;;;;;;22.07;16.87;;;2.30;97.00;;;;;;5026040;28;20647;-89
2023/02/14 09:36:16;;;;;;;22.93;17.73;;;2.30;98.10;;;;;;5025985;28;20208;-87
2023/02/14 09:38:42;;;;;;;21.53;18.73;;;2.40;98.60;;;;;;5024611;28;20177;-88
2023/02/14 09:41:14;;;;;;;27.30;20.40;;;2.20;99.90;;;;;;5025875;28;20195;-87
2023/02/14 09:44:08;;;;;;;25.23;20.70;;;2.00;99.90;;;;;;5028484;28;20204;-88
2023/02/14 09:46:42;;;;;;;27.03;21.47;;;2.10;99.90;;;;;;5029541;28;20192;-89
2023/02/14 09:49:14;;;;;;;27.83;22.07;;;2.20;99.40;;;;;;5028036;28;20553;-88
2023/02/14 09:51:46;;;;;;;24.63;19.40;;;1.90;99.90;;;;;;5028915;28;20201;-87
2023/02/14 09:54:17;;;;;;;27.20;20.60;;;2.00;99.90;;;;;;5027707;28;20177;-86
2023/02/14 09:56:57;;;;;;;25.27;21.23;;;1.80;99.90;;;;;;5030101;28;20243;-88
2023/02/14 09:59:51;;;;;;;25.93;20.97;;;1.90;99.90;;;;;;5031594;28;20177;-89
2023/02/14 10:02:46;;;;;;;28.47;21.43;;;1.90;99.90;;;;;;5026028;28;20425;-86
2023/02/14 10:05:29;;;;;;;24.33;20.63;;;1.80;99.90;;;;;;5030424;28;20259;-88
2023/02/14 10:08:16;;;;;;;27.23;21.47;;;2.20;99.90;;;;;;5031086;28;20268;-87
2023/02/14 10:10:44;;;;;;;29.10;21.80;;;2.10;99.90;;;;;;5030087;28;20561;-87
2023/02/14 10:13:33;;;;;;;28.27;21.43;;;2.20;99.90;;;;;;5026141;28;20255;-88
2023/02/14 10:16:15;;;;;;;27.87;21.57;;;2.10;99.90;;;;;;5041352;28;20231;-90
2023/02/14 10:19:00;;;;;;;27.23;20.77;;;2.50;99.90;;;;;;5050805;28;20260;-88
2023/02/14 10:21:40;;;;;;;27.60;21.37;;;2.70;99.90;;;;;;5042722;28;20243;-87
2023/02/14 10:24:30;;;;;;;28.13;22.03;;;2.80;99.30;;;;;;5029012;28;20602;-85
2023/02/14 10:27:02;;;;;;;28.53;20.43;;;2.90;97.60;;;;;;5030161;28;20185;-87
2023/02/14 10:29:28;;;;;;;26.77;19.80;;;3.00;96.80;;;;;;5033837;28;20189;-86
2023/02/14 10:32:01;;;;;;;25.23;21.60;;;3.00;96.90;;;;;;5027334;28;20699;-84
2023/02/14 10:34:40;;;;;;;23.30;19.73;;;3.20;94.60;;;;;;5028353;28;20192;-84
2023/02/14 10:37:25;;;;;;;26.27;20.57;;;3.30;93.90;;;;;;5033189;28;20247;-85
2023/02/14 10:39:55;;;;;;;24.23;20.73;;;3.20;94.10;;;;;;5033518;28;20177;-80
2023/02/14 10:42:33;;;;;;;30.67;24.13;;;3.20;95.10;;;;;;5032532;28;20209;-87
2023/02/14 10:45:29;;;;;;;28.63;21.07;;;2.90;95.80;;;;;;5029146;28;20215;-83
2023/02/14 10:48:08;;;;;;;29.20;22.97;;;2.80;98.40;;;;;;5030526;28;20189;-86
2023/02/14 10:50:56;;;;;;;28.17;22.53;;;2.80;96.40;;;;;;5031181;28;20185;-84
2023/02/14 10:53:32;;;;;;;28.97;23.37;;;2.90;97.40;;;;;;5026442;28;20240;-86
2023/02/14 10:56:04;;;;;;;26.73;21.23;;;3.10;96.60;;;;;;5028428;28;20197;-85
2023/02/14 10:58:35;;;;;;;32.40;24.00;;;3.20;94.30;;;;;;5032959;28;20188;-84
2023/02/14 11:01:16;;;;;;;29.03;23.10;;;2.70;98.90;;;;;;5033657;28;20169;-86
2023/02/14 11:03:54;;;;;;;32.40;26.17;;;2.80;98.90;;;;;;5030352;28;20236;-85
2023/02/14 11:06:19;;;;;;;32.53;24.13;;;2.90;98.10;;;;;;5034172;28;20555;-83
2023/02/14 11:08:45;;;;;;;32.27;24.73;;;3.00;97.20;;;;;;5034357;28;20212;-85
2023/02/14 11:11:24;;;;;;;32.00;25.23;;;3.10;96.10;;;;;;5030185;28;20197;-84
2023/02/14 11:13:50;;;;;;;33.87;26.53;;;3.30;95.40;;;;;;5029070;28;20212;-85
2023/02/14 11:16:30;;;;;;;30.40;24.10;;;3.20;95.70;;;;;;5033376;28;20216;-85
2023/02/14 11:19:25;;;;;;;34.93;25.60;;;3.40;95.60;;;;;;5033820;28;20429;-87
2023/02/14 11:21:54;;;;;;;33.53;25.93;;;3.30;95.40;;;;;;5028517;28;20213;-89
2023/02/14 11:24:25;;;;;;;31.73;25.47;;;3.20;96.70;;;;;;5027315;28;20182;-89
2023/02/14 11:26:54;;;;;;;35.53;22.47;;;3.30;97.00;;;;;;5027012;28;20185;-88
2023/02/14 11:29:40;;;;;;;27.60;22.40;;;3.30;96.20;;;;;;5024572;28;20282;-88
2023/02/14 11:32:12;;;;;;;29.60;23.97;;;3.30;96.90;;;;;;5036126;28;20216;-89
2023/02/14 11:34:43;;;;;;;26.67;22.43;;;3.30;96.10;;;;;;5043647;28;20180;-86
2023/02/14 11:37:24;;;;;;;26.43;22.60;;;3.50;96.40;;;;;;5046583;28;20201;-88
2023/02/14 11:39:54;;;;;;;29.70;23.77;;;3.40;96.00;;;;;;5044196;28;20188;-89
2023/02/14 11:42:40;;;;;;;26.90;21.80;;;3.60;94.80;;;;;;5039570;28;21386;-89
2023/02/14 11:45:09;;;;;;;33.00;23.43;;;3.70;93.70;;;;;;5026337;28;20200;-86
2023/02/14 11:47:41;;;;;;;29.90;23.73;;;3.60;95.10;;;;;;5029280;28;20239;-86
2023/02/14 11:50:22;;;;;;;27.23;23.57;;;3.60;95.50;;;;;;5030715;28;20173;-88
2023/02/14 11:52:54;;;;;;;29.57;24.53;;;3.70;95.60;;;;;;5026747;28;20204;-86
2023/02/14 11:55:27;;;;;;;29.97;24.53;;;3.80;95.00;;;;;;5026905;28;20220;-85
2023/02/14 11:57:53;;;;;;;28.27;23.60;;;3.80;95.50;;;;;;5025170;28;20420;-86
2023/02/14 12:00:20;;;;;;;33.37;24.93;;;3.90;94.10;;;;;;5029535;28;20272;-88
2023/02/14 12:02:51;;;;;;;26.20;22.70;;;3.80;93.20;;;;;;5027220;28;20236;-89
2023/02/14 12:05:25;;;;;;;30.03;25.73;;;3.80;94.40;;;;;;5028780;28;20219;-89
2023/02/14 12:08:11;;;;;;;32.33;25.47;;;3.80;94.00;;;;;;5031069;28;20322;-89
2023/02/14 12:10:38;;;;;;;28.63;24.23;;;3.80;94.90;;;;;;5030443;28;20204;-87
2023/02/14 12:13:07;;;;;;;28.47;25.37;;;3.90;95.60;;;;;;5026978;28;20208;-87
2023/02/14 12:15:36;;;;;;;40.70;26.17;;;4.20;92.90;;;;;;5027511;28;20232;-90
2023/02/14 12:18:07;;;;;;;29.63;24.17;;;4.00;93.60;;;;;;5028639;28;20195;-86
2023/02/14 12:20:55;;;;;;;33.87;25.30;;;3.70;96.20;;;;;;5029714;28;20181;-87
2023/02/14 12:23:41;;;;;;;32.87;25.63;;;3.80;96.10;;;;;;5026450;28;20193;-87
2023/02/14 12:26:25;;;;;;;31.50;24.43;;;4.00;96.10;;;;;;5023715;28;20185;-87
2023/02/14 12:29:04;;;;;;;28.77;23.80;;;3.90;95.80;;;;;;5029220;28;21197;-87
2023/02/14 12:31:30;;;;;;;33.53;26.67;;;3.80;96.20;;;;;;5026855;28;20227;-87
2023/02/14 12:33:56;;;;;;;28.03;24.27;;;3.90;97.50;;;;;;5026677;28;20213;-88
2023/02/14 12:36:56;;;;;;;31.13;25.30;;;4.10;94.70;;;;;;5028680;28;20211;-90
2023/02/14 12:39:34;;;;;;;27.20;23.43;;;4.10;94.70;;;;;;5027656;28;20191;-87
2023/02/14 12:42:34;;;;;;;28.77;23.57;;;4.10;94.60;;;;;;5027593;28;20308;-87
2023/02/14 12:45:23;;;;;;;29.90;24.77;;;4.00;94.20;;;;;;5026326;28;20177;-86
2023/02/14 12:48:40;;;;;;;32.30;26.50;;;4.10;94.80;;;;;;5029154;28;20918;-88
2023/02/14 12:51:18;;;;;;;28.17;23.80;;;4.20;95.20;;;;;;5002646;28;20201;-86
2023/02/14 12:53:47;;;;;;;30.87;25.87;;;4.30;94.70;;;;;;5027933;28;20217;-86
2023/02/14 12:56:18;;;;;;;32.07;26.67;;;4.50;93.10;;;;;;5028945;28;20220;-87
2023/02/14 12:58:44;;;;;;;32.67;27.20;;;4.60;91.40;;;;;;5028238;28;20370;-88
2023/02/14 13:01:48;;;;;;;31.63;26.60;;;4.80;90.90;;;;;;5026579;28;21136;-89
2023/02/14 13:04:23;;;;;;;30.90;25.57;;;4.60;91.70;;;;;;4999734;28;20200;-88
2023/02/14 13:07:15;;;;;;;28.87;25.53;;;4.90;91.10;;;;;;5027884;28;20188;-88
2023/02/14 13:09:52;;;;;;;28.87;25.80;;;5.20;89.40;;;;;;5011470;28;20594;-87
2023/02/14 13:12:39;;;;;;;30.50;25.97;;;5.30;88.00;;;;;;5027071;28;20208;-86
2023/02/14 13:15:05;;;;;;;29.23;24.37;;;5.20;87.60;;;;;;5025456;28;20714;-87